createdAt,value
2022-11-09T00:04:44.484Z,13.43
2022-11-09T00:09:46.503Z,11.38
2022-11-09T00:14:48.488Z,12.70
2022-11-09T00:24:52.773Z,10.68
2022-11-09T00:30:00.542Z,11.05
2022-11-09T00:35:02.697Z,10.38
2022-11-09T00:40:08.646Z,12.85
2022-11-09T00:45:11.616Z,11.07
2022-11-09T00:55:37.640Z,13.48
2022-11-09T01:00:40.913Z,16.35
2022-11-09T01:05:43.134Z,13.60
2022-11-09T01:16:16.739Z,13.30
2022-11-09T01:21:28.433Z,13.23
2022-11-09T01:26:31.780Z,12.23
2022-11-09T01:31:34.701Z,13.25
2022-11-09T01:36:40.944Z,16.10
2022-11-09T01:41:44.230Z,17.17
2022-11-09T01:47:03.999Z,16.70
2022-11-09T01:52:12.208Z,19.17
2022-11-09T01:57:34.166Z,14.10
2022-11-09T02:05:23.626Z,14.20
2022-11-09T02:10:48.327Z,16.98
2022-11-09T02:15:52.093Z,14.52
2022-11-09T02:20:58.440Z,20.20
2022-11-09T02:26:08.867Z,18.08
2022-11-09T02:31:24.335Z,15.73
2022-11-09T02:36:30.527Z,16.30
2022-11-09T02:41:44.297Z,13.57
2022-11-09T02:46:51.351Z,16.15
2022-11-09T02:51:55.256Z,13.95
2022-11-09T02:57:06.939Z,15.00
2022-11-09T03:02:10.069Z,13.02
2022-11-09T03:07:15.441Z,13.55
2022-11-09T03:12:33.515Z,14.27
2022-11-09T03:17:47.420Z,13.18
2022-11-09T03:22:50.305Z,15.30
2022-11-09T03:28:03.251Z,15.18
2022-11-09T03:33:29.667Z,17.98
2022-11-09T03:38:39.976Z,13.98
2022-11-09T03:43:45.642Z,13.00
2022-11-09T03:48:51.272Z,16.23
2022-11-09T03:54:22.476Z,15.68
2022-11-09T04:05:02.527Z,21.00
2022-11-09T04:10:05.978Z,16.33
2022-11-09T04:15:08.506Z,17.40
2022-11-09T04:20:11.688Z,13.95
2022-11-09T04:25:13.713Z,14.15
2022-11-09T04:35:21.065Z,11.18
2022-11-09T04:40:24.916Z,11.75
2022-11-09T04:45:27.409Z,10.95
2022-11-09T04:50:29.886Z,14.43
2022-11-09T04:55:31.824Z,10.60
2022-11-09T05:00:34.033Z,14.90
2022-11-09T05:05:37.923Z,11.50
2022-11-09T05:10:40.308Z,9.68
2022-11-09T05:15:42.645Z,14.63
2022-11-09T05:20:44.575Z,13.00
2022-11-09T05:25:47.523Z,13.32
2022-11-09T05:30:49.550Z,12.05
2022-11-09T05:40:57.810Z,12.00
2022-11-09T05:46:03.947Z,14.15
2022-11-09T05:51:10.189Z,11.13
2022-11-09T05:56:13.401Z,11.45
2022-11-09T06:01:30.588Z,12.05
2022-11-09T06:06:32.810Z,10.77
2022-11-09T06:11:34.787Z,10.15
2022-11-09T06:16:37.527Z,9.00
2022-11-09T06:21:39.751Z,9.45
2022-11-09T06:26:41.748Z,14.85
2022-11-09T06:36:45.462Z,9.63
2022-11-09T06:41:47.849Z,8.50
2022-11-09T06:46:49.934Z,9.60
2022-11-09T06:51:55.147Z,10.30
2022-11-09T06:56:57.131Z,9.32
2022-11-09T07:02:01.669Z,9.27
2022-11-09T07:07:04.043Z,13.68
2022-11-09T07:12:06.342Z,16.45
2022-11-09T07:17:09.136Z,30.65
2022-11-09T07:22:14.543Z,16.42
2022-11-09T07:27:16.567Z,16.42
2022-11-09T07:37:20.353Z,12.77
2022-11-09T07:42:22.593Z,12.32
2022-11-09T07:47:24.834Z,15.10
2022-11-09T07:52:27.179Z,14.85
2022-11-09T07:57:29.137Z,13.20
2022-11-09T08:02:35.731Z,15.48
2022-11-09T08:07:37.800Z,11.15
2022-11-09T08:17:41.759Z,13.68
2022-11-09T08:27:46.786Z,9.20
2022-11-09T08:32:49.723Z,10.05
2022-11-09T08:37:53.306Z,13.18
2022-11-09T08:42:55.482Z,14.45
2022-11-09T08:47:58.929Z,17.35
2022-11-09T08:53:02.110Z,9.50
2022-11-09T08:58:06.779Z,22.55
2022-11-09T09:03:19.375Z,17.10
2022-11-09T09:08:23.759Z,14.00
2022-11-09T09:13:29.549Z,13.57
2022-11-09T09:18:31.576Z,18.75
2022-11-09T09:23:33.819Z,15.75
2022-11-09T09:28:39.412Z,14.65
2022-11-09T09:33:47.688Z,18.35
2022-11-09T09:38:54.198Z,20.13
2022-11-09T09:44:00.913Z,16.52
2022-11-09T09:49:12.947Z,17.98
2022-11-09T09:54:24.246Z,16.00
2022-11-09T09:59:36.010Z,13.83
2022-11-09T10:04:41.823Z,14.70
2022-11-09T10:10:24.983Z,19.52
2022-11-09T10:15:49.619Z,13.90
2022-11-09T10:21:11.509Z,15.32
2022-11-09T10:31:21.430Z,16.10
2022-11-09T10:36:36.497Z,12.20
2022-11-09T10:41:41.140Z,9.93
2022-11-09T10:47:18.120Z,11.23
2022-11-09T10:52:47.468Z,10.57
2022-11-09T10:58:26.396Z,14.30
2022-11-09T11:03:52.340Z,11.07
2022-11-09T11:09:15.338Z,8.02
2022-11-09T11:14:45.656Z,7.85
2022-11-09T11:20:24.781Z,8.35
2022-11-09T11:25:56.390Z,7.10
2022-11-09T11:31:20.152Z,7.53
2022-11-09T11:37:05.446Z,12.20
2022-11-09T11:42:50.483Z,12.25
2022-11-09T11:48:29.228Z,14.73
2022-11-09T11:54:13.383Z,9.57
2022-11-09T12:06:48.656Z,21.92
2022-11-09T12:12:15.305Z,21.85
2022-11-09T12:17:59.854Z,5.68
2022-11-09T12:23:20.784Z,10.23
2022-11-09T12:28:54.262Z,10.00
2022-11-09T12:34:17.631Z,6.57
2022-11-09T12:39:54.594Z,10.32
2022-11-09T12:45:39.173Z,7.38
2022-11-09T12:51:01.797Z,9.55
2022-11-09T12:56:27.916Z,9.48
2022-11-09T13:01:56.420Z,6.97
2022-11-09T13:07:28.222Z,8.80
2022-11-09T13:12:48.578Z,8.15
2022-11-09T13:18:35.243Z,9.02
2022-11-09T13:24:02.302Z,7.75
2022-11-09T13:29:29.496Z,9.43
2022-11-09T13:34:58.652Z,6.50
2022-11-09T13:40:31.019Z,3.80
2022-11-09T13:45:56.449Z,7.07
2022-11-09T13:51:17.178Z,5.93
2022-11-09T13:56:41.114Z,7.78
2022-11-09T14:02:04.163Z,7.22
2022-11-09T14:07:28.047Z,5.63
2022-11-09T14:13:01.465Z,7.53
2022-11-09T14:18:54.152Z,8.80
2022-11-09T14:24:29.801Z,7.30
2022-11-09T14:29:56.675Z,5.68
2022-11-09T14:35:21.174Z,6.63
2022-11-09T14:40:46.930Z,6.30
2022-11-09T14:46:19.933Z,6.18
2022-11-09T14:51:40.797Z,3.47
2022-11-09T14:57:01.636Z,1.83
2022-11-09T15:02:22.651Z,2.27
2022-11-09T15:07:46.497Z,5.73
2022-11-09T15:13:07.500Z,1.40
2022-11-09T15:18:33.703Z,2.30
2022-11-09T15:24:25.592Z,2.40
2022-11-09T15:29:46.187Z,1.42
2022-11-09T15:35:16.292Z,4.33
2022-11-09T15:40:36.895Z,2.30
2022-11-09T15:46:03.717Z,8.20
2022-11-09T15:51:24.695Z,1.70
2022-11-09T15:56:45.367Z,5.30
2022-11-09T16:02:06.449Z,3.20
2022-11-09T16:07:26.806Z,2.60
2022-11-09T16:12:57.842Z,5.47
2022-11-09T16:18:24.531Z,2.55
2022-11-09T16:23:46.291Z,4.40
2022-11-09T16:29:06.607Z,7.60
2022-11-09T16:34:27.190Z,4.22
2022-11-09T16:39:47.735Z,2.75
2022-11-09T16:45:12.454Z,5.93
2022-11-09T16:50:32.862Z,4.03
2022-11-09T16:55:53.488Z,3.90
2022-11-09T17:01:17.502Z,5.77
2022-11-09T17:06:41.417Z,7.07
2022-11-09T17:12:02.339Z,5.27
2022-11-09T17:17:23.109Z,5.65
2022-11-09T17:22:46.222Z,3.90
2022-11-09T17:28:11.085Z,4.78
2022-11-09T17:33:31.836Z,4.20
2022-11-09T17:38:58.340Z,4.32
2022-11-09T17:44:19.866Z,4.80
2022-11-09T17:49:40.364Z,2.40
2022-11-09T17:55:00.953Z,3.25
2022-11-09T18:00:23.583Z,5.30
2022-11-09T18:05:48.403Z,4.78
2022-11-09T18:11:09.143Z,3.85
2022-11-09T18:16:29.706Z,2.97
2022-11-09T18:21:50.589Z,7.55
2022-11-09T18:27:11.412Z,2.25
2022-11-09T18:32:32.080Z,4.00
2022-11-09T18:37:52.682Z,5.15
2022-11-09T18:43:13.184Z,2.45
2022-11-09T18:48:35.644Z,3.73
2022-11-09T18:53:56.485Z,2.63
2022-11-09T18:59:17.408Z,4.23
2022-11-09T19:04:40.603Z,3.63
2022-11-09T19:10:05.530Z,2.67
2022-11-09T19:15:26.869Z,2.60
2022-11-09T19:20:47.711Z,2.33
2022-11-09T19:26:08.361Z,3.30
2022-11-09T19:31:29.268Z,3.00
2022-11-09T19:36:55.928Z,4.03
2022-11-09T19:42:17.141Z,7.38
2022-11-09T19:47:38.136Z,5.43
2022-11-09T19:52:59.100Z,3.87
2022-11-09T19:58:19.829Z,6.55
2022-11-09T20:03:40.836Z,3.13
2022-11-09T20:09:01.382Z,2.72
2022-11-09T20:14:21.956Z,2.13
2022-11-09T20:19:42.639Z,3.67
2022-11-09T20:25:10.085Z,1.98
2022-11-09T20:30:30.755Z,2.38
2022-11-09T20:35:53.153Z,3.33
2022-11-09T20:41:25.631Z,4.13
2022-11-09T20:46:46.197Z,4.68
2022-11-09T20:52:06.404Z,3.38
2022-11-09T20:57:26.723Z,3.63
2022-11-09T21:02:48.297Z,2.30
2022-11-09T21:08:09.527Z,4.13
2022-11-09T21:13:30.725Z,4.43
2022-11-09T21:18:54.483Z,4.43
2022-11-09T21:24:33.715Z,5.07
2022-11-09T21:29:55.790Z,5.90
2022-11-09T21:40:36.831Z,2.65
2022-11-09T21:45:59.056Z,4.88
2022-11-09T21:51:26.086Z,3.25
2022-11-09T21:56:50.846Z,3.58
2022-11-09T22:02:12.195Z,3.20
2022-11-09T22:07:32.436Z,5.47
2022-11-09T22:13:11.824Z,5.13
2022-11-09T22:18:51.714Z,6.28
2022-11-09T22:24:15.508Z,3.80
2022-11-09T22:29:36.075Z,8.27
2022-11-09T22:34:56.550Z,4.32
2022-11-09T22:40:18.445Z,9.95
2022-11-09T22:45:38.680Z,7.05
2022-11-09T22:51:04.974Z,11.52
2022-11-09T22:56:25.570Z,15.45
2022-11-09T23:01:46.486Z,6.68
2022-11-09T23:07:07.241Z,6.97
2022-11-09T23:12:27.900Z,14.45
2022-11-09T23:18:07.312Z,13.90
2022-11-09T23:23:27.668Z,12.98
2022-11-09T23:28:48.843Z,11.40
2022-11-09T23:34:10.325Z,9.48
2022-11-09T23:39:30.889Z,8.10
2022-11-09T23:44:51.710Z,9.30
2022-11-09T23:50:12.799Z,9.37
2022-11-09T23:55:33.777Z,8.65
